Bookmark and Share
Track history (hours):
 

Tetide

Last reported at 2014-Apr-24 17:33 UTC. Time now 2014-Apr-25 06:18 UTC.
Position N 41°01' E 013°13'.

Length 70 m; draft 3.6 m.

Type: Passenger vessel. MMSI: 247043100.

NotesDate/timePositionNaut miles runAvg speedWind from/ knotsBaromVisibWave heightAir tempDewpointWater temp
2014-Apr-24 17:33N 41°01' E 013°13'15 4.4
2014-Apr-24 14:05N 41°03' E 013°33'814.5
2014-Apr-24 13:33N 40°55' E 013°29'8 6.4
2014-Apr-24 12:20N 40°48' E 013°26'0 0.0
2014-Apr-24 09:32N 40°48' E 013°26'29 2.8
2014-Apr-23 23:24N 41°15' E 013°37'6 0.7
2014-Apr-23 14:31N 41°09' E 013°35'1414.6
2014-Apr-23 13:33N 40°56' E 013°30'8 4.1
2014-Apr-23 11:33N 40°48' E 013°26'0 0.0
2014-Apr-23 10:29N 40°48' E 013°26'0 0.4
2014-Apr-23 09:33N 40°48' E 013°26'1514.8
2014-Apr-23 08:31N 41°03' E 013°32'4 0.2
2014-Apr-22 14:29N 41°07' E 013°34'1414.6
2014-Apr-22 13:32N 40°53' E 013°29'6 5.3
2014-Apr-22 12:26N 40°48' E 013°26'0 0.0
2014-Apr-22 11:33N 40°48' E 013°26'0 0.0
2014-Apr-22 10:33N 40°48' E 013°26'0 0.0
2014-Apr-22 09:29N 40°48' E 013°26'1313.8
2014-Apr-22 08:33N 41°00' E 013°30'16 1.0
2014-Apr-21 16:31N 41°15' E 013°37'0 0.0
2014-Apr-21 15:08N 41°15' E 013°37'710.2
2014-Apr-21 14:29N 41°09' E 013°35'1415.0
2014-Apr-21 13:33N 40°56' E 013°29'8 8.1
2014-Apr-21 12:33N 40°48' E 013°26'0 0.0
2014-Apr-21 11:21N 40°48' E 013°26'0 0.0
2014-Apr-21 10:33N 40°48' E 013°26'0 0.0
2014-Apr-21 09:33N 40°48' E 013°26'1010.2
2014-Apr-21 08:33N 40°58' E 013°29'1814.9
2014-Apr-21 07:20N 41°15' E 013°37'7 3.9
2014-Apr-21 05:33N 41°10' E 013°32'1514.5
2014-Apr-21 04:33N 41°01' E 013°16'1514.8
2014-Apr-21 03:31N 40°54' E 012°58'0 0.3
2014-Apr-21 02:31N 40°54' E 012°58'0 0.0
2014-Apr-21 01:33N 40°54' E 012°58'0 0.0
2014-Apr-21 00:33N 40°54' E 012°58'0 0.0
2014-Apr-20 20:31N 40°54' E 012°58'0 0.0
2014-Apr-20 19:33N 40°54' E 012°58'11 7.8
2014-Apr-20 18:07N 41°00' E 013°10'25 9.8
2014-Apr-20 15:32N 41°15' E 013°37'0 0.0
2014-Apr-20 13:33N 41°15' E 013°37'20 0.8
2014-Apr-19 13:33N 40°56' E 013°29'8 2.0
2014-Apr-19 09:24N 40°48' E 013°26'1413.6
2014-Apr-19 08:22N 41°01' E 013°31'10 0.5
2014-Apr-18 13:25N 40°52' E 013°28'3 0.1
2014-Apr-17 13:28N 40°54' E 013°29'5 1.3
2014-Apr-17 09:33N 40°49' E 013°26'17 0.9
2014-Apr-16 14:14N 41°05' E 013°33'1114.6
2014-Apr-16 13:29N 40°55' E 013°28'7 6.0
2014-Apr-16 12:21N 40°48' E 013°26'0 0.0
2014-Apr-16 11:26N 40°48' E 013°26'0 0.0
2014-Apr-16 10:25N 40°48' E 013°26'0 0.0
2014-Apr-16 09:28N 40°48' E 013°26'1313.7
2014-Apr-16 08:32N 41°00' E 013°31'16 1.3
2014-Apr-15 20:23N 41°15' E 013°37'10 1.7
2014-Apr-15 14:16N 41°05' E 013°34'10 6.2
2014-Apr-15 12:34N 40°55' E 013°30'  

Dump ship's entire track history

sailing weather and tide predictions

Tetide — IVTN — position and weather